Time;durP1;ratioP1;P1;durP2;ratioP2;P2;SDS_P1;SDS_P2;PMS_P1;PMS_P2;Temp;Humidity;BMP_temperature;BMP_pressure;BME280_temperature;BME280_humidity;BME280_pressure;Samples;Min_cycle;Max_cycle;Signal;HPM_P1;HPM_P2
2023/06/14 00:01:48;;;;;;;9.40;5.85;;;;;;;20.11;88.59;101319.53;5267263;28;20444;-71
2023/06/14 00:04:20;;;;;;;12.15;5.90;;;;;;;19.98;88.92;101329.19;5269912;28;20025;-73
2023/06/14 00:06:52;;;;;;;6.85;6.15;;;;;;;19.91;88.69;101317.47;5267018;28;20028;-73
2023/06/14 00:09:23;;;;;;;8.25;5.55;;;;;;;19.89;89.38;101330.34;5266587;28;20135;-73
2023/06/14 00:11:55;;;;;;;7.47;5.88;;;;;;;19.87;89.83;101321.59;5264077;28;20470;-73
2023/06/14 00:14:26;;;;;;;6.88;6.07;;;;;;;19.85;89.71;101331.78;5268962;28;20043;-73
2023/06/14 00:16:58;;;;;;;8.15;6.25;;;;;;;19.89;89.74;101322.25;5265759;28;20058;-73
2023/06/14 00:19:34;;;;;;;16.13;9.98;;;;;;;19.75;89.63;101331.25;5265996;28;20028;-73
2023/06/14 00:22:05;;;;;;;15.43;8.27;;;;;;;19.75;90.39;101326.66;5270703;28;20020;-73
2023/06/14 00:24:36;;;;;;;8.55;7.65;;;;;;;19.67;90.75;101336.75;5262906;28;20073;-73
2023/06/14 00:27:08;;;;;;;11.48;9.15;;;;;;;19.54;91.74;101340.13;5270644;28;20028;-73
2023/06/14 00:29:39;;;;;;;9.52;6.97;;;;;;;19.67;90.83;101337.59;5270016;28;20049;-73
2023/06/14 00:32:10;;;;;;;10.38;6.45;;;;;;;19.61;90.24;101333.75;5270001;28;20020;-74
2023/06/14 00:34:42;;;;;;;9.60;6.93;;;;;;;19.56;90.38;101328.09;5262541;28;20166;-73
2023/06/14 00:37:13;;;;;;;8.70;6.05;;;;;;;19.52;91.64;101339.50;5261873;28;20242;-64
2023/06/14 00:39:44;;;;;;;10.60;6.35;;;;;;;19.51;91.31;101327.81;5263441;28;20411;-64
2023/06/14 00:42:28;;;;;;;8.32;6.70;;;;;;;19.55;91.36;101339.94;5265963;28;20031;-64
2023/06/14 00:45:00;;;;;;;8.50;6.03;;;;;;;19.43;91.02;101342.28;5268002;28;20564;-64
2023/06/14 00:47:31;;;;;;;11.15;8.65;;;;;;;19.24;91.69;101332.06;5269029;28;20059;-64
2023/06/14 00:50:08;;;;;;;8.90;6.45;;;;;;;19.32;91.32;101333.81;5271954;28;20575;-64
2023/06/14 00:52:40;;;;;;;10.75;7.45;;;;;;;19.22;91.39;101334.94;5267476;28;20053;-63
2023/06/14 00:55:11;;;;;;;9.23;6.47;;;;;;;19.21;91.09;101333.25;5270380;28;20395;-63
2023/06/14 00:57:43;;;;;;;7.07;5.78;;;;;;;19.22;91.18;101331.41;5270429;28;20111;-63
2023/06/14 01:00:14;;;;;;;9.38;5.88;;;;;;;19.03;91.44;101330.94;5265699;28;20239;-62
2023/06/14 01:02:46;;;;;;;10.07;5.82;;;;;;;19.12;91.35;101333.56;5274172;28;20039;-63
2023/06/14 01:05:18;;;;;;;7.93;5.07;;;;;;;19.01;91.58;101341.09;5266238;28;20407;-64
2023/06/14 01:07:55;;;;;;;8.35;5.45;;;;;;;18.99;92.06;101335.06;5269417;28;20440;-63
2023/06/14 01:10:52;;;;;;;7.85;5.32;;;;;;;19.07;91.46;101336.81;5273534;28;20484;-63
2023/06/14 01:13:35;;;;;;;7.72;5.40;;;;;;;18.96;90.80;101335.41;5270096;28;20425;-64
2023/06/14 01:16:08;;;;;;;9.70;4.68;;;;;;;18.75;90.76;101338.81;5268834;28;20028;-63
2023/06/14 01:18:41;;;;;;;11.13;5.18;;;;;;;18.73;90.85;101340.03;5270134;28;20086;-64
2023/06/14 01:21:26;;;;;;;6.20;4.75;;;;;;;18.81;91.06;101343.50;5268453;28;20602;-63
2023/06/14 01:23:57;;;;;;;5.75;4.57;;;;;;;18.71;90.33;101343.75;5265442;28;20028;-62
2023/06/14 01:26:29;;;;;;;8.25;4.63;;;;;;;18.68;90.52;101338.72;5271833;28;20560;-62
2023/06/14 01:29:00;;;;;;;6.68;4.80;;;;;;;18.62;90.84;101335.94;5265625;28;20466;-63
2023/06/14 01:31:41;;;;;;;9.68;5.30;;;;;;;18.61;89.05;101337.75;5266156;28;20116;-63
2023/06/14 01:34:12;;;;;;;7.03;4.65;;;;;;;18.57;89.53;101336.47;5270617;28;20117;-64
2023/06/14 01:36:45;;;;;;;8.32;4.30;;;;;;;18.56;89.23;101340.16;5267410;28;20504;-63
2023/06/14 01:39:17;;;;;;;6.57;4.80;;;;;;;18.48;89.49;101340.28;5263513;28;20229;-62
2023/06/14 01:41:50;;;;;;;9.80;5.00;;;;;;;18.45;89.23;101338.75;5271235;28;20409;-63
2023/06/14 01:44:23;;;;;;;7.10;4.75;;;;;;;18.50;88.38;101343.63;5269353;28;20565;-63
2023/06/14 01:46:54;;;;;;;9.57;4.90;;;;;;;18.34;88.49;101341.91;5266516;28;20028;-63
2023/06/14 01:49:26;;;;;;;7.57;4.57;;;;;;;18.41;87.13;101344.72;5269459;28;20032;-63
2023/06/14 01:51:57;;;;;;;10.18;5.00;;;;;;;18.39;87.83;101341.34;5267155;28;20024;-63
2023/06/14 01:54:29;;;;;;;9.02;4.82;;;;;;;18.27;87.97;101336.38;5267511;28;20086;-62
2023/06/14 01:57:00;;;;;;;8.35;5.30;;;;;;;18.27;87.85;101340.97;5265961;28;20044;-62
2023/06/14 01:59:31;;;;;;;8.07;4.88;;;;;;;18.32;87.46;101333.16;5267128;28;20055;-64
2023/06/14 02:02:03;;;;;;;7.57;5.00;;;;;;;18.12;87.43;101333.63;5265397;28;20031;-63
2023/06/14 02:04:34;;;;;;;9.27;5.13;;;;;;;18.23;87.04;101336.91;5266094;28;20052;-64
2023/06/14 02:07:06;;;;;;;6.60;4.90;;;;;;;18.24;86.75;101335.91;5268363;28;20401;-64
2023/06/14 02:09:37;;;;;;;9.65;4.78;;;;;;;18.20;87.16;101337.28;5271754;28;20040;-64
2023/06/14 02:12:08;;;;;;;7.50;4.72;;;;;;;18.08;88.21;101335.00;5271717;28;20419;-64
2023/06/14 02:14:40;;;;;;;6.28;4.90;;;;;;;18.07;88.31;101341.41;5267077;28;20066;-63
2023/06/14 02:17:11;;;;;;;7.45;4.57;;;;;;;18.11;88.04;101333.81;5263908;28;20519;-64
2023/06/14 02:19:43;;;;;;;8.45;4.70;;;;;;;18.04;88.30;101341.78;5264171;28;20027;-64
2023/06/14 02:22:15;;;;;;;7.97;4.88;;;;;;;17.98;88.62;101341.66;5267358;28;20116;-63
2023/06/14 02:24:46;;;;;;;11.23;5.32;;;;;;;17.97;88.38;101339.97;5266356;28;20493;-63
2023/06/14 02:27:18;;;;;;;9.32;5.20;;;;;;;17.87;88.89;101341.06;5268022;28;20374;-61
2023/06/14 02:29:49;;;;;;;9.73;4.88;;;;;;;17.91;88.69;101338.84;5265999;28;20461;-61
2023/06/14 02:32:20;;;;;;;7.38;5.10;;;;;;;17.86;88.45;101344.75;5266156;28;20051;-61
2023/06/14 02:34:53;;;;;;;7.15;5.20;;;;;;;17.94;88.96;101341.19;5271506;28;20485;-63
2023/06/14 02:37:24;;;;;;;8.73;4.85;;;;;;;17.75;89.55;101342.44;5265646;28;20035;-63
2023/06/14 02:39:56;;;;;;;10.45;5.25;;;;;;;17.76;89.56;101346.84;5266139;28;20064;-62
2023/06/14 02:42:27;;;;;;;7.53;4.70;;;;;;;17.67;90.27;101353.28;5267509;28;20032;-63
2023/06/14 02:44:58;;;;;;;7.47;4.85;;;;;;;17.64;90.43;101349.09;5271840;28;20031;-63
2023/06/14 02:47:29;;;;;;;8.70;4.95;;;;;;;17.66;90.82;101355.13;5265353;28;20033;-63
2023/06/14 02:50:01;;;;;;;8.32;5.10;;;;;;;17.63;91.23;101355.47;5268216;28;20439;-62
2023/06/14 02:52:33;;;;;;;9.48;4.60;;;;;;;17.51;91.17;101359.59;5268205;28;20037;-63
2023/06/14 02:55:06;;;;;;;8.98;4.68;;;;;;;17.53;92.82;101358.41;5262731;28;20329;-63
2023/06/14 02:57:37;;;;;;;6.20;4.75;;;;;;;17.45;92.22;101352.22;5269392;28;20028;-64
2023/06/14 03:00:10;;;;;;;9.63;4.88;;;;;;;17.44;91.95;101356.75;5265060;28;20495;-63
2023/06/14 03:02:42;;;;;;;7.53;4.32;;;;;;;17.39;92.61;101356.44;5267695;28;20028;-63
2023/06/14 03:05:14;;;;;;;7.60;4.90;;;;;;;17.33;92.73;101351.75;5273956;28;20024;-63
2023/06/14 03:07:45;;;;;;;5.55;4.53;;;;;;;17.33;92.88;101352.59;5269863;28;20475;-63
2023/06/14 03:10:16;;;;;;;8.48;4.65;;;;;;;17.30;93.22;101363.75;5264759;28;20024;-64
2023/06/14 03:12:48;;;;;;;7.78;5.18;;;;;;;17.34;93.38;101362.38;5268411;28;20489;-64
2023/06/14 03:15:19;;;;;;;8.73;5.18;;;;;;;17.28;93.39;101365.75;5262827;28;20085;-63
2023/06/14 03:17:50;;;;;;;10.30;5.10;;;;;;;17.26;93.52;101369.63;5264315;28;20055;-64
2023/06/14 03:20:21;;;;;;;7.22;4.90;;;;;;;17.31;94.49;101373.50;5266993;28;20040;-66
2023/06/14 03:22:54;;;;;;;7.75;4.63;;;;;;;17.23;95.33;101376.19;5276282;28;20521;-68
2023/06/14 03:25:25;;;;;;;8.00;4.85;;;;;;;17.20;95.61;101379.28;5268792;28;20073;-66
2023/06/14 03:27:57;;;;;;;7.47;4.97;;;;;;;17.15;95.95;101373.56;5266036;28;20031;-68
2023/06/14 03:30:30;;;;;;;8.27;5.18;;;;;;;17.16;96.30;101373.38;5263279;28;20063;-69
2023/06/14 03:33:01;;;;;;;6.40;4.38;;;;;;;17.11;97.50;101377.59;5266215;28;20102;-66
2023/06/14 03:35:32;;;;;;;7.50;4.20;;;;;;;17.16;97.43;101384.16;5267917;28;20024;-66
2023/06/14 03:38:04;;;;;;;6.35;4.55;;;;;;;17.06;98.41;101379.97;5270091;28;20028;-67
2023/06/14 03:40:35;;;;;;;7.18;4.35;;;;;;;17.06;98.62;101375.44;5266028;28;20016;-68
2023/06/14 03:43:06;;;;;;;6.60;4.30;;;;;;;16.99;99.23;101380.66;5264771;28;20566;-66
2023/06/14 03:45:37;;;;;;;7.75;4.50;;;;;;;17.05;99.81;101376.44;5268746;28;20028;-67
2023/06/14 03:48:09;;;;;;;6.53;4.90;;;;;;;17.03;99.82;101378.47;5266235;28;20032;-66
2023/06/14 03:50:42;;;;;;;9.38;4.53;;;;;;;16.93;100.00;101388.56;5265357;28;20154;-67
2023/06/14 03:53:13;;;;;;;7.00;4.85;;;;;;;16.95;100.00;101383.84;5265454;28;20020;-66
2023/06/14 03:55:45;;;;;;;5.78;4.40;;;;;;;16.95;100.00;101384.72;5270024;28;20021;-66
2023/06/14 03:58:16;;;;;;;7.60;4.53;;;;;;;16.92;100.00;101378.84;5266682;28;20119;-69
2023/06/14 04:00:47;;;;;;;7.78;4.75;;;;;;;16.99;100.00;101388.75;5269119;28;20318;-66
2023/06/14 04:03:19;;;;;;;8.18;4.70;;;;;;;16.92;100.00;101395.84;5269455;28;20465;-68
2023/06/14 04:05:50;;;;;;;5.15;4.38;;;;;;;16.99;100.00;101402.22;5266959;28;20035;-66
2023/06/14 04:08:22;;;;;;;8.85;4.60;;;;;;;16.95;100.00;101397.31;5266982;28;20052;-67
2023/06/14 04:10:53;;;;;;;11.27;6.05;;;;;;;17.00;100.00;101393.13;5266307;28;20032;-67
2023/06/14 04:13:24;;;;;;;7.07;4.97;;;;;;;16.97;100.00;101395.31;5265927;28;20150;-65
2023/06/14 04:15:56;;;;;;;11.88;4.95;;;;;;;16.91;100.00;101396.81;5265054;28;20016;-68
2023/06/14 04:18:27;;;;;;;6.28;5.28;;;;;;;17.04;100.00;101398.16;5263506;28;20058;-67
2023/06/14 04:20:59;;;;;;;6.53;4.60;;;;;;;17.07;100.00;101405.91;5269943;28;20042;-68
2023/06/14 04:23:30;;;;;;;6.65;5.22;;;;;;;16.95;100.00;101405.41;5267273;28;20090;-67
2023/06/14 04:26:01;;;;;;;7.13;4.95;;;;;;;17.03;100.00;101410.78;5269072;28;20743;-67
2023/06/14 04:28:40;;;;;;;9.27;4.88;;;;;;;16.96;100.00;101409.81;5269521;28;20027;-66
2023/06/14 04:31:11;;;;;;;6.78;5.20;;;;;;;16.99;100.00;101407.59;5269595;28;20035;-66
2023/06/14 04:33:43;;;;;;;8.77;4.32;;;;;;;17.02;100.00;101414.50;5267563;28;20429;-66
2023/06/14 04:36:17;;;;;;;17.15;8.65;;;;;;;17.01;100.00;101413.66;5268201;28;20068;-66
2023/06/14 04:38:49;;;;;;;10.02;6.05;;;;;;;17.04;100.00;101414.31;5270484;28;20454;-66
2023/06/14 04:41:22;;;;;;;8.63;6.47;;;;;;;17.10;100.00;101408.25;5270695;28;20319;-66
2023/06/14 04:43:53;;;;;;;9.52;5.25;;;;;;;17.06;100.00;101413.16;5266473;28;20028;-66
2023/06/14 04:46:27;;;;;;;6.10;5.18;;;;;;;17.13;100.00;101411.47;5269471;28;20461;-65
2023/06/14 04:49:02;;;;;;;8.40;4.80;;;;;;;17.13;100.00;101410.63;5270612;28;20043;-67
2023/06/14 04:51:34;;;;;;;6.57;4.32;;;;;;;17.15;100.00;101411.28;5268312;28;20435;-67
2023/06/14 04:54:09;;;;;;;10.18;5.65;;;;;;;17.11;100.00;101416.19;5271425;28;20115;-67
2023/06/14 04:56:44;;;;;;;10.57;5.30;;;;;;;17.20;100.00;101415.16;5272225;28;20067;-68
2023/06/14 04:59:17;;;;;;;12.88;5.97;;;;;;;17.26;100.00;101420.88;5268270;28;20032;-69
2023/06/14 05:01:49;;;;;;;8.18;5.13;;;;;;;17.25;100.00;101425.41;5271088;28;20125;-66
2023/06/14 05:04:22;;;;;;;8.38;5.30;;;;;;;17.26;100.00;101421.69;5262376;28;20040;-66
2023/06/14 05:06:54;;;;;;;7.18;5.18;;;;;;;17.38;100.00;101425.69;5272476;28;20028;-66
2023/06/14 05:09:25;;;;;;;6.53;4.57;;;;;;;17.47;100.00;101423.00;5269051;28;20513;-66
2023/06/14 05:11:58;;;;;;;6.93;4.95;;;;;;;17.51;100.00;101422.47;5277089;28;20055;-68
2023/06/14 05:14:29;;;;;;;7.78;5.05;;;;;;;17.51;100.00;101427.00;5272351;28;20032;-66
2023/06/14 05:17:02;;;;;;;7.85;4.63;;;;;;;17.54;100.00;101432.06;5269429;28;20399;-68
2023/06/14 05:19:33;;;;;;;7.28;4.50;;;;;;;17.66;100.00;101433.38;5272468;28;21163;-67
2023/06/14 05:22:05;;;;;;;11.43;5.13;;;;;;;17.77;100.00;101432.13;5269515;28;20048;-67
2023/06/14 05:24:36;;;;;;;7.18;4.60;;;;;;;17.83;100.00;101433.28;5273702;28;20028;-66
2023/06/14 05:27:08;;;;;;;10.98;5.10;;;;;;;17.80;100.00;101437.19;5268130;28;20081;-66
2023/06/14 05:29:40;;;;;;;8.10;4.25;;;;;;;17.92;100.00;101429.59;5271015;28;20024;-66
2023/06/14 05:32:11;;;;;;;5.03;4.18;;;;;;;17.98;100.00;101431.56;5269735;28;20030;-66
2023/06/14 05:34:43;;;;;;;8.13;4.93;;;;;;;18.10;100.00;101437.41;5277693;28;20618;-67
2023/06/14 05:37:14;;;;;;;8.70;4.72;;;;;;;18.06;100.00;101436.09;5273064;28;20028;-66
2023/06/14 05:39:46;;;;;;;6.50;5.03;;;;;;;18.17;100.00;101438.38;5269601;28;20055;-72
2023/06/14 05:42:17;;;;;;;8.32;4.80;;;;;;;18.19;100.00;101441.72;5272934;28;20103;-72
2023/06/14 05:44:48;;;;;;;7.63;4.47;;;;;;;18.33;100.00;101446.34;5270280;28;20449;-72
2023/06/14 05:47:20;;;;;;;14.13;10.57;;;;;;;18.36;100.00;101449.75;5268351;28;20123;-72
2023/06/14 05:49:51;;;;;;;7.28;4.97;;;;;;;18.42;100.00;101452.53;5270318;28;20142;-72
2023/06/14 05:52:22;;;;;;;7.88;4.70;;;;;;;18.62;100.00;101444.81;5267264;28;20043;-72
2023/06/14 05:54:53;;;;;;;7.55;4.50;;;;;;;18.68;100.00;101448.66;5268965;28;20068;-72
2023/06/14 05:57:25;;;;;;;8.15;4.50;;;;;;;18.75;100.00;101451.47;5269461;28;20037;-72
2023/06/14 05:59:56;;;;;;;9.02;5.18;;;;;;;18.80;100.00;101452.59;5270262;28;20031;-73
2023/06/14 06:02:27;;;;;;;11.73;4.60;;;;;;;18.88;100.00;101457.13;5269523;28;20028;-72
2023/06/14 06:04:58;;;;;;;11.70;4.63;;;;;;;18.99;100.00;101454.00;5272302;28;20514;-72
2023/06/14 06:07:30;;;;;;;9.82;4.90;;;;;;;19.10;100.00;101462.69;5268329;28;20052;-72
2023/06/14 06:10:01;;;;;;;10.70;4.82;;;;;;;19.20;100.00;101458.69;5265207;28;20491;-72
2023/06/14 06:12:32;;;;;;;10.50;5.03;;;;;;;19.42;100.00;101453.38;5263479;28;20502;-73
2023/06/14 06:15:04;;;;;;;8.95;4.68;;;;;;;19.58;100.00;101464.03;5265579;28;20567;-73
2023/06/14 06:17:36;;;;;;;6.13;4.03;;;;;;;19.76;100.00;101462.84;5264664;28;20039;-72
2023/06/14 06:20:08;;;;;;;11.77;4.40;;;;;;;20.03;100.00;101470.25;5269975;28;20028;-73
2023/06/14 06:22:39;;;;;;;12.23;4.53;;;;;;;20.17;99.44;101470.41;5265368;28;21029;-73
2023/06/14 06:25:10;;;;;;;12.65;4.40;;;;;;;20.45;98.25;101472.41;5264621;28;20070;-72
2023/06/14 06:27:42;;;;;;;7.32;4.35;;;;;;;20.68;97.65;101483.91;5264701;28;20054;-73
2023/06/14 06:30:13;;;;;;;9.10;3.80;;;;;;;20.97;95.61;101482.09;5268815;28;20039;-73
2023/06/14 06:32:44;;;;;;;8.73;4.60;;;;;;;21.09;94.92;101482.38;5274466;28;20038;-73
2023/06/14 06:35:16;;;;;;;7.80;3.97;;;;;;;21.32;94.80;101479.44;5266421;28;20028;-80
2023/06/14 06:37:47;;;;;;;8.10;3.65;;;;;;;21.51;93.93;101495.03;5270905;28;20027;-81
2023/06/14 06:40:18;;;;;;;8.23;3.97;;;;;;;21.78;92.77;101492.47;5268100;28;20032;-82
2023/06/14 06:42:50;;;;;;;10.15;4.10;;;;;;;22.05;92.32;101489.88;5265098;28;20024;-79
2023/06/14 06:45:23;;;;;;;8.30;3.85;;;;;;;22.24;90.82;101493.72;5270732;28;20028;-81
2023/06/14 06:47:55;;;;;;;11.93;4.57;;;;;;;22.47;91.37;101498.81;5268885;28;20029;-81
2023/06/14 06:50:26;;;;;;;9.95;3.90;;;;;;;22.82;88.07;101498.66;5269572;28;20287;-80
2023/06/14 06:52:58;;;;;;;8.20;4.00;;;;;;;23.06;87.10;101508.13;5268441;28;20028;-81
2023/06/14 06:55:30;;;;;;;9.75;4.15;;;;;;;23.27;86.54;101504.34;5270213;28;20500;-82
2023/06/14 06:58:01;;;;;;;9.63;3.88;;;;;;;23.46;84.85;101515.41;5274217;28;20186;-82
2023/06/14 07:00:32;;;;;;;7.93;3.65;;;;;;;23.64;84.78;101512.88;5268949;28;20764;-81
2023/06/14 07:03:04;;;;;;;5.03;3.50;;;;;;;23.89;82.89;101504.88;5267938;28;20094;-79
2023/06/14 07:05:35;;;;;;;9.15;3.47;;;;;;;23.98;81.75;101510.91;5268065;28;20035;-81
2023/06/14 07:08:06;;;;;;;11.05;3.80;;;;;;;24.04;79.88;101506.50;5277989;28;20032;-82
2023/06/14 07:10:37;;;;;;;5.68;3.95;;;;;;;24.28;79.06;101510.34;5271293;28;20114;-81
2023/06/14 07:13:09;;;;;;;12.02;3.55;;;;;;;24.39;77.89;101508.84;5274594;28;20031;-81
2023/06/14 07:15:40;;;;;;;14.75;3.78;;;;;;;24.73;77.56;101521.25;5272297;28;20546;-80
2023/06/14 07:18:11;;;;;;;7.78;3.88;;;;;;;24.94;76.22;101525.50;5270753;28;20056;-81
2023/06/14 07:20:43;;;;;;;10.38;3.70;;;;;;;25.01;75.00;101518.09;5272808;28;20471;-83
2023/06/14 07:23:14;;;;;;;7.35;3.60;;;;;;;25.34;74.82;101525.19;5277816;28;20028;-82
2023/06/14 07:25:46;;;;;;;10.35;3.35;;;;;;;25.35;74.79;101528.75;5282868;28;20039;-82
2023/06/14 07:28:18;;;;;;;7.03;3.25;;;;;;;25.54;74.83;101526.91;5290617;28;20032;-83
2023/06/14 07:30:49;;;;;;;10.80;3.47;;;;;;;26.03;72.95;101530.56;5276387;28;20047;-83
2023/06/14 07:33:21;;;;;;;12.47;4.10;;;;;;;25.99;71.23;101535.66;5297954;28;20029;-80
2023/06/14 07:35:52;;;;;;;7.03;3.40;;;;;;;26.28;71.53;101533.22;5277223;28;20401;-82
2023/06/14 07:38:24;;;;;;;7.13;3.20;;;;;;;26.46;68.11;101529.59;5274435;28;20028;-82
2023/06/14 07:40:55;;;;;;;4.40;3.17;;;;;;;26.43;67.57;101538.25;5274098;28;20469;-82
2023/06/14 07:43:26;;;;;;;6.90;3.67;;;;;;;26.73;67.08;101540.19;5278726;28;20345;-83
2023/06/14 07:45:58;;;;;;;6.68;3.10;;;;;;;26.76;66.76;101545.19;5281437;28;20047;-83
2023/06/14 07:48:29;;;;;;;7.45;3.38;;;;;;;27.01;66.39;101539.53;5274242;28;20067;-83
2023/06/14 07:51:01;;;;;;;9.30;3.00;;;;;;;27.19;65.34;101548.72;5273072;28;20025;-81
2023/06/14 07:53:32;;;;;;;9.07;2.90;;;;;;;27.17;63.58;101543.47;5283955;28;20032;-82
2023/06/14 07:56:03;;;;;;;6.47;2.83;;;;;;;27.16;62.58;101545.41;5284977;28;20017;-80
2023/06/14 07:58:35;;;;;;;5.90;3.00;;;;;;;27.56;64.02;101551.25;5277831;28;20499;-81
2023/06/14 08:01:07;;;;;;;9.73;2.75;;;;;;;27.59;61.26;101548.06;5279530;28;20032;-82
2023/06/14 08:03:39;;;;;;;6.20;2.92;;;;;;;27.73;60.14;101557.69;5282237;28;20054;-81
2023/06/14 08:06:10;;;;;;;8.27;3.15;;;;;;;28.02;59.14;101563.28;5279031;28;20438;-83
2023/06/14 08:08:42;;;;;;;16.13;3.20;;;;;;;28.38;59.24;101562.06;5277981;28;20112;-81
2023/06/14 08:11:13;;;;;;;6.05;2.78;;;;;;;28.26;55.24;101570.38;5280956;28;20016;-82
2023/06/14 08:13:44;;;;;;;6.70;2.38;;;;;;;28.33;54.36;101562.00;5278948;28;20021;-82
2023/06/14 08:16:15;;;;;;;6.15;4.70;;;;;;;28.69;54.48;101562.69;5279104;28;20087;-83
2023/06/14 08:18:47;;;;;;;7.70;3.10;;;;;;;28.73;53.89;101563.88;5275808;28;20044;-84
2023/06/14 08:21:19;;;;;;;6.30;3.40;;;;;;;28.95;54.06;101558.50;5274977;28;20028;-80
2023/06/14 08:23:52;;;;;;;6.78;2.78;;;;;;;28.96;51.98;101562.06;5277585;28;20354;-82
2023/06/14 08:26:28;;;;;;;9.23;2.85;;;;;;;29.16;50.73;101548.72;5277956;28;20025;-83
2023/06/14 08:29:00;;;;;;;7.95;2.60;;;;;;;29.05;51.58;101557.84;5282183;28;20035;-85
2023/06/14 08:31:31;;;;;;;11.80;2.80;;;;;;;29.48;52.19;101561.84;5287632;28;20044;-85
2023/06/14 08:34:03;;;;;;;7.50;2.80;;;;;;;29.51;50.55;101555.84;5279397;28;20054;-82
2023/06/14 08:36:35;;;;;;;6.75;2.40;;;;;;;29.52;50.16;101564.91;5278023;28;20044;-84
2023/06/14 08:39:08;;;;;;;6.22;2.33;;;;;;;29.77;49.45;101557.06;5275095;28;20048;-84
2023/06/14 08:41:40;;;;;;;7.47;2.47;;;;;;;30.08;50.06;101556.63;5278906;28;20029;-85
2023/06/14 08:44:11;;;;;;;7.90;2.50;;;;;;;30.20;49.17;101556.50;5274980;28;20139;-83
2023/06/14 08:46:43;;;;;;;8.30;2.50;;;;;;;30.31;46.94;101561.88;5283120;28;20056;-82
2023/06/14 08:49:16;;;;;;;7.45;2.35;;;;;;;30.24;46.85;101560.41;5284566;28;20088;-81
2023/06/14 08:51:54;;;;;;;4.63;1.92;;;;;;;30.31;45.04;101558.28;5283565;28;20039;-82
2023/06/14 08:54:27;;;;;;;5.70;2.33;;;;;;;30.32;45.77;101558.00;5282673;28;20028;-83
2023/06/14 08:56:59;;;;;;;8.55;2.17;;;;;;;30.53;45.14;101552.78;5276188;28;20020;-82
2023/06/14 08:59:33;;;;;;;8.43;2.10;;;;;;;31.02;44.60;101547.19;5277500;28;20635;-83
2023/06/14 09:02:06;;;;;;;4.32;1.95;;;;;;;31.30;43.24;101553.47;5278115;28;20036;-84
2023/06/14 09:04:39;;;;;;;5.30;2.58;;;;;;;30.98;43.06;101559.00;5276790;28;20478;-83
2023/06/14 09:07:12;;;;;;;7.15;2.00;;;;;;;31.46;43.14;101559.91;5282852;28;20025;-84
2023/06/14 09:09:43;;;;;;;5.50;2.72;;;;;;;31.37;43.11;101556.81;5281145;28;20039;-82
2023/06/14 09:12:15;;;;;;;4.53;2.33;;;;;;;31.32;41.90;101555.97;5286265;28;20549;-82
2023/06/14 09:14:46;;;;;;;7.05;2.25;;;;;;;31.47;41.94;101556.91;5275926;28;20028;-82
2023/06/14 09:17:17;;;;;;;8.88;2.35;;;;;;;31.83;40.12;101561.81;5276617;28;20028;-83
2023/06/14 09:19:49;;;;;;;6.87;1.93;;;;;;;31.97;38.04;101559.38;5276125;28;20089;-82
2023/06/14 09:22:20;;;;;;;3.60;1.80;;;;;;;32.14;36.80;101551.75;5276520;28;20294;-82
2023/06/14 09:24:53;;;;;;;6.00;1.73;;;;;;;32.22;37.48;101562.28;5275206;28;20283;-82
2023/06/14 09:27:29;;;;;;;3.08;1.60;;;;;;;32.33;36.65;101556.78;5277674;28;20033;-83
2023/06/14 09:30:01;;;;;;;6.68;1.60;;;;;;;32.47;33.37;101562.59;5278346;28;20031;-82
2023/06/14 09:32:37;;;;;;;3.47;1.40;;;;;;;32.30;32.88;101557.34;5277025;28;20271;-82
2023/06/14 09:35:09;;;;;;;9.70;1.70;;;;;;;32.63;33.12;101557.97;5274012;28;20069;-82
2023/06/14 09:37:41;;;;;;;3.35;1.30;;;;;;;32.70;32.61;101562.13;5275595;28;20039;-82
2023/06/14 09:40:12;;;;;;;2.95;1.52;;;;;;;32.65;30.95;101569.59;5279664;28;20036;-82
2023/06/14 09:42:44;;;;;;;1.55;1.13;;;;;;;32.80;31.06;101558.53;5276627;28;20024;-83
2023/06/14 09:45:21;;;;;;;4.55;1.40;;;;;;;32.77;29.97;101570.16;5277624;28;20456;-82
2023/06/14 09:47:52;;;;;;;2.55;1.27;;;;;;;33.08;30.13;101572.91;5281567;28;20025;-81
2023/06/14 09:50:24;;;;;;;4.80;0.85;;;;;;;33.16;30.01;101564.13;5273898;28;20036;-81
2023/06/14 09:53:03;;;;;;;1.83;1.10;;;;;;;33.06;29.67;101567.66;5281206;28;20020;-82
2023/06/14 09:55:36;;;;;;;3.33;1.10;;;;;;;33.36;29.39;101571.53;5273618;28;20115;-82
2023/06/14 09:58:09;;;;;;;3.45;1.05;;;;;;;33.60;29.08;101576.50;5275636;28;20052;-82
2023/06/14 10:00:43;;;;;;;3.83;1.40;;;;;;;33.65;29.30;101569.00;5273775;28;20032;-82
2023/06/14 10:03:22;;;;;;;3.30;1.05;;;;;;;33.74;29.33;101569.28;5284890;28;20020;-83
2023/06/14 10:05:55;;;;;;;4.60;1.50;;;;;;;34.24;28.07;101567.44;5276021;28;20031;-82
2023/06/14 10:08:28;;;;;;;4.25;1.20;;;;;;;33.67;28.82;101574.28;5275610;28;20038;-83
2023/06/14 10:10:59;;;;;;;4.35;1.30;;;;;;;33.91;28.26;101578.06;5282617;28;20135;-83
2023/06/14 10:13:33;;;;;;;3.28;1.08;;;;;;;33.51;28.50;101562.41;5275244;28;20031;-82
2023/06/14 10:16:18;;;;;;;5.10;1.42;;;;;;;33.84;28.34;101552.66;5274309;28;20040;-81
2023/06/14 10:19:15;;;;;;;6.85;1.25;;;;;;;34.33;29.08;101550.22;5273310;28;20024;-82
2023/06/14 10:22:01;;;;;;;2.05;1.13;;;;;;;34.55;28.48;101556.16;5273359;28;20914;-83
2023/06/14 10:24:38;;;;;;;2.75;1.10;;;;;;;34.31;26.94;101549.69;5273117;28;20039;-81
2023/06/14 10:27:13;;;;;;;5.40;1.45;;;;;;;34.47;27.39;101560.38;5274738;28;20056;-83
2023/06/14 10:29:53;;;;;;;1.85;1.35;;;;;;;34.69;27.34;101558.31;5275183;28;20028;-82
2023/06/14 10:32:27;;;;;;;2.17;1.25;;;;;;;34.37;27.12;101552.13;5274371;28;20082;-81
2023/06/14 10:35:01;;;;;;;2.90;1.20;;;;;;;34.49;26.85;101554.56;5275531;28;20563;-82
2023/06/14 10:37:33;;;;;;;3.47;1.33;;;;;;;34.54;27.13;101553.69;5283160;28;20024;-82
2023/06/14 10:40:08;;;;;;;4.95;1.30;;;;;;;34.64;26.89;101561.94;5295275;28;20297;-83
2023/06/14 10:42:51;;;;;;;4.07;1.00;;;;;;;35.23;26.84;101549.03;5295362;28;20016;-83
2023/06/14 10:45:22;;;;;;;3.75;1.50;;;;;;;34.93;25.65;101561.19;5294612;28;20070;-82
2023/06/14 10:47:57;;;;;;;1.93;1.20;;;;;;;35.46;26.99;101558.50;5291143;28;20028;-81
2023/06/14 10:50:29;;;;;;;1.70;1.20;;;;;;;35.22;25.48;101555.69;5280310;28;20755;-82
2023/06/14 10:53:21;;;;;;;1.67;1.20;;;;;;;35.37;26.23;101555.53;5276675;28;20101;-83
2023/06/14 10:55:53;;;;;;;3.83;1.98;;;;;;;35.62;25.37;101552.78;5280400;28;20032;-81
2023/06/14 10:58:25;;;;;;;3.47;1.30;;;;;;;35.69;26.01;101556.03;5278442;28;20030;-81
2023/06/14 11:00:56;;;;;;;3.80;1.00;;;;;;;35.25;25.93;101559.84;5275410;28;20734;-81
2023/06/14 11:03:51;;;;;;;6.03;1.33;;;;;;;35.91;26.50;101556.34;5284745;28;20138;-82
2023/06/14 11:06:28;;;;;;;5.22;1.30;;;;;;;35.86;26.12;101564.72;5281910;28;20445;-82
2023/06/14 11:09:20;;;;;;;3.03;1.30;;;;;;;35.86;25.13;101550.84;5277030;28;20539;-82
2023/06/14 11:11:56;;;;;;;2.83;1.60;;;;;;;35.80;24.31;101556.75;5284808;28;20130;-82
2023/06/14 11:14:30;;;;;;;4.38;1.30;;;;;;;35.99;24.50;101565.13;5283080;28;20020;-81
2023/06/14 11:17:02;;;;;;;2.72;1.35;;;;;;;36.11;24.59;101562.75;5289348;28;20024;-82
2023/06/14 11:19:34;;;;;;;2.42;1.33;;;;;;;35.62;25.37;101558.34;5275255;28;20036;-83
2023/06/14 11:22:05;;;;;;;5.30;1.40;;;;;;;35.76;24.47;101543.47;5279945;28;20028;-81
2023/06/14 11:24:36;;;;;;;4.07;1.33;;;;;;;35.74;25.40;101540.16;5272939;28;20322;-81
2023/06/14 11:27:08;;;;;;;4.65;1.40;;;;;;;35.81;25.50;101545.38;5277012;28;20796;-81
2023/06/14 11:29:47;;;;;;;2.08;1.15;;;;;;;35.91;25.95;101550.78;5276751;28;20036;-82
2023/06/14 11:32:19;;;;;;;3.00;1.17;;;;;;;35.74;25.02;101536.56;5270979;28;20120;-81
2023/06/14 11:34:51;;;;;;;4.18;1.60;;;;;;;35.97;25.37;101535.72;5273426;28;20066;-81
2023/06/14 11:37:24;;;;;;;4.30;1.80;;;;;;;35.71;25.99;101535.25;5272049;28;20125;-80
2023/06/14 11:39:59;;;;;;;3.45;1.70;;;;;;;35.85;25.46;101543.63;5269622;28;20036;-82
2023/06/14 11:42:31;;;;;;;4.93;1.55;;;;;;;35.81;25.75;101539.00;5278280;28;20036;-83
2023/06/14 11:45:04;;;;;;;2.85;1.30;;;;;;;35.79;26.11;101539.28;5274606;28;20059;-83
2023/06/14 11:47:37;;;;;;;4.28;1.25;;;;;;;35.65;25.82;101538.31;5273936;28;20035;-83